sensor_id;sensor_type;location;lat;lon;timestamp;P1;durP1;ratioP1;P2;durP2;ratioP2
56720;SDS011;53183;47.412;18.884;2022-11-15T00:01:15;38.80;;;19.42;;
56720;SDS011;53183;47.412;18.884;2022-11-15T00:04:03;38.67;;;22.40;;
56720;SDS011;53183;47.412;18.884;2022-11-15T00:06:49;40.97;;;21.20;;
56720;SDS011;53183;47.412;18.884;2022-11-15T00:09:35;36.20;;;19.42;;
56720;SDS011;53183;47.412;18.884;2022-11-15T00:12:27;42.17;;;21.52;;
56720;SDS011;53183;47.412;18.884;2022-11-15T00:15:13;41.95;;;19.87;;
56720;SDS011;53183;47.412;18.884;2022-11-15T00:17:59;41.70;;;21.15;;
56720;SDS011;53183;47.412;18.884;2022-11-15T00:20:44;40.00;;;20.62;;
56720;SDS011;53183;47.412;18.884;2022-11-15T00:23:30;43.70;;;22.45;;
56720;SDS011;53183;47.412;18.884;2022-11-15T00:26:16;42.62;;;20.70;;
56720;SDS011;53183;47.412;18.884;2022-11-15T00:29:02;37.72;;;20.65;;
56720;SDS011;53183;47.412;18.884;2022-11-15T00:31:47;38.97;;;19.50;;
56720;SDS011;53183;47.412;18.884;2022-11-15T00:34:33;35.10;;;21.00;;
56720;SDS011;53183;47.412;18.884;2022-11-15T00:37:19;34.17;;;19.50;;
56720;SDS011;53183;47.412;18.884;2022-11-15T00:40:04;40.70;;;20.75;;
56720;SDS011;53183;47.412;18.884;2022-11-15T00:42:51;35.63;;;20.23;;
56720;SDS011;53183;47.412;18.884;2022-11-15T00:45:36;43.38;;;20.75;;
56720;SDS011;53183;47.412;18.884;2022-11-15T00:48:22;42.50;;;21.08;;
56720;SDS011;53183;47.412;18.884;2022-11-15T00:51:08;38.60;;;21.05;;
56720;SDS011;53183;47.412;18.884;2022-11-15T00:53:56;36.58;;;20.20;;
56720;SDS011;53183;47.412;18.884;2022-11-15T00:56:41;34.58;;;18.77;;
56720;SDS011;53183;47.412;18.884;2022-11-15T00:59:26;33.13;;;18.67;;
56720;SDS011;53183;47.412;18.884;2022-11-15T01:02:11;36.33;;;18.33;;
56720;SDS011;53183;47.412;18.884;2022-11-15T01:04:58;33.58;;;17.65;;
56720;SDS011;53183;47.412;18.884;2022-11-15T01:07:44;29.87;;;17.40;;
56720;SDS011;53183;47.412;18.884;2022-11-15T01:10:30;31.00;;;17.50;;
56720;SDS011;53183;47.412;18.884;2022-11-15T01:13:15;31.12;;;16.67;;
56720;SDS011;53183;47.412;18.884;2022-11-15T01:16:07;30.05;;;17.48;;
56720;SDS011;53183;47.412;18.884;2022-11-15T01:19:02;37.15;;;17.62;;
56720;SDS011;53183;47.412;18.884;2022-11-15T01:21:48;31.17;;;17.17;;
56720;SDS011;53183;47.412;18.884;2022-11-15T01:24:35;29.87;;;17.23;;
56720;SDS011;53183;47.412;18.884;2022-11-15T01:27:20;28.45;;;16.37;;
56720;SDS011;53183;47.412;18.884;2022-11-15T01:30:06;35.67;;;16.92;;
56720;SDS011;53183;47.412;18.884;2022-11-15T01:32:53;33.47;;;16.10;;
56720;SDS011;53183;47.412;18.884;2022-11-15T01:35:40;29.85;;;17.20;;
56720;SDS011;53183;47.412;18.884;2022-11-15T01:38:26;30.48;;;16.60;;
56720;SDS011;53183;47.412;18.884;2022-11-15T01:41:15;27.73;;;15.45;;
56720;SDS011;53183;47.412;18.884;2022-11-15T01:47:27;28.42;;;15.40;;
56720;SDS011;53183;47.412;18.884;2022-11-15T01:50:17;31.15;;;15.95;;
56720;SDS011;53183;47.412;18.884;2022-11-15T01:53:07;27.98;;;16.67;;
56720;SDS011;53183;47.412;18.884;2022-11-15T01:55:53;31.70;;;15.73;;
56720;SDS011;53183;47.412;18.884;2022-11-15T01:58:39;29.40;;;15.73;;
56720;SDS011;53183;47.412;18.884;2022-11-15T02:01:26;32.70;;;16.17;;
56720;SDS011;53183;47.412;18.884;2022-11-15T02:04:16;31.75;;;15.60;;
56720;SDS011;53183;47.412;18.884;2022-11-15T02:07:06;29.05;;;16.20;;
56720;SDS011;53183;47.412;18.884;2022-11-15T02:09:55;27.13;;;15.50;;
56720;SDS011;53183;47.412;18.884;2022-11-15T02:12:46;26.40;;;14.85;;
56720;SDS011;53183;47.412;18.884;2022-11-15T02:15:34;27.42;;;14.98;;
56720;SDS011;53183;47.412;18.884;2022-11-15T02:18:28;27.70;;;15.80;;
56720;SDS011;53183;47.412;18.884;2022-11-15T02:30:43;23.65;;;13.45;;
56720;SDS011;53183;47.412;18.884;2022-11-15T02:33:39;23.38;;;12.98;;
56720;SDS011;53183;47.412;18.884;2022-11-15T02:42:38;28.08;;;13.40;;
56720;SDS011;53183;47.412;18.884;2022-11-15T02:46:14;26.33;;;13.48;;
56720;SDS011;53183;47.412;18.884;2022-11-15T02:49:03;24.52;;;13.45;;
56720;SDS011;53183;47.412;18.884;2022-11-15T02:51:49;26.00;;;13.73;;
56720;SDS011;53183;47.412;18.884;2022-11-15T02:54:38;24.48;;;13.38;;
56720;SDS011;53183;47.412;18.884;2022-11-15T03:00:23;20.20;;;11.75;;
56720;SDS011;53183;47.412;18.884;2022-11-15T03:03:24;21.37;;;11.35;;
56720;SDS011;53183;47.412;18.884;2022-11-15T03:10:36;21.33;;;12.10;;
56720;SDS011;53183;47.412;18.884;2022-11-15T03:13:27;23.20;;;11.95;;
56720;SDS011;53183;47.412;18.884;2022-11-15T03:19:50;23.23;;;12.95;;
56720;SDS011;53183;47.412;18.884;2022-11-15T03:22:39;22.55;;;12.55;;
56720;SDS011;53183;47.412;18.884;2022-11-15T03:25:28;22.25;;;11.80;;
56720;SDS011;53183;47.412;18.884;2022-11-15T03:28:17;20.75;;;12.23;;
56720;SDS011;53183;47.412;18.884;2022-11-15T03:31:07;21.62;;;12.57;;
56720;SDS011;53183;47.412;18.884;2022-11-15T03:34:34;23.27;;;11.27;;
56720;SDS011;53183;47.412;18.884;2022-11-15T03:40:45;20.77;;;11.23;;
56720;SDS011;53183;47.412;18.884;2022-11-15T03:44:04;21.80;;;10.98;;
56720;SDS011;53183;47.412;18.884;2022-11-15T03:46:58;19.52;;;10.88;;
56720;SDS011;53183;47.412;18.884;2022-11-15T03:50:03;18.48;;;10.65;;
56720;SDS011;53183;47.412;18.884;2022-11-15T03:52:55;20.95;;;11.45;;
56720;SDS011;53183;47.412;18.884;2022-11-15T03:55:41;19.25;;;11.40;;
56720;SDS011;53183;47.412;18.884;2022-11-15T03:58:26;22.52;;;10.32;;
56720;SDS011;53183;47.412;18.884;2022-11-15T04:01:12;16.77;;;8.98;;
56720;SDS011;53183;47.412;18.884;2022-11-15T04:03:58;14.07;;;8.52;;
56720;SDS011;53183;47.412;18.884;2022-11-15T04:06:43;17.23;;;8.75;;
56720;SDS011;53183;47.412;18.884;2022-11-15T04:09:29;18.87;;;8.95;;
56720;SDS011;53183;47.412;18.884;2022-11-15T04:12:14;19.15;;;10.38;;
56720;SDS011;53183;47.412;18.884;2022-11-15T04:15:18;19.80;;;9.50;;
56720;SDS011;53183;47.412;18.884;2022-11-15T04:18:06;16.17;;;9.60;;
56720;SDS011;53183;47.412;18.884;2022-11-15T04:20:52;22.42;;;10.35;;
56720;SDS011;53183;47.412;18.884;2022-11-15T04:23:56;17.27;;;9.50;;
56720;SDS011;53183;47.412;18.884;2022-11-15T04:26:57;18.40;;;9.65;;
56720;SDS011;53183;47.412;18.884;2022-11-15T04:29:42;19.67;;;9.02;;
56720;SDS011;53183;47.412;18.884;2022-11-15T04:38:19;18.98;;;10.45;;
56720;SDS011;53183;47.412;18.884;2022-11-15T04:41:05;18.20;;;10.18;;
56720;SDS011;53183;47.412;18.884;2022-11-15T04:43:50;23.05;;;10.45;;
56720;SDS011;53183;47.412;18.884;2022-11-15T04:46:38;20.05;;;10.90;;
56720;SDS011;53183;47.412;18.884;2022-11-15T04:49:24;15.20;;;9.38;;
56720;SDS011;53183;47.412;18.884;2022-11-15T04:52:09;18.92;;;9.43;;
56720;SDS011;53183;47.412;18.884;2022-11-15T04:54:55;18.60;;;10.70;;
56720;SDS011;53183;47.412;18.884;2022-11-15T04:57:40;18.90;;;9.98;;
56720;SDS011;53183;47.412;18.884;2022-11-15T05:00:26;24.63;;;11.35;;
56720;SDS011;53183;47.412;18.884;2022-11-15T05:03:12;22.70;;;10.25;;
56720;SDS011;53183;47.412;18.884;2022-11-15T05:06:17;18.90;;;10.63;;
56720;SDS011;53183;47.412;18.884;2022-11-15T05:09:03;21.90;;;11.40;;
56720;SDS011;53183;47.412;18.884;2022-11-15T05:11:49;25.75;;;12.32;;
56720;SDS011;53183;47.412;18.884;2022-11-15T05:14:35;27.83;;;13.85;;
56720;SDS011;53183;47.412;18.884;2022-11-15T05:17:20;25.52;;;13.43;;
56720;SDS011;53183;47.412;18.884;2022-11-15T05:20:06;27.75;;;14.63;;
56720;SDS011;53183;47.412;18.884;2022-11-15T05:22:53;24.55;;;12.30;;
56720;SDS011;53183;47.412;18.884;2022-11-15T05:25:39;25.12;;;12.02;;
56720;SDS011;53183;47.412;18.884;2022-11-15T05:28:24;25.60;;;13.95;;
56720;SDS011;53183;47.412;18.884;2022-11-15T05:31:12;25.98;;;14.55;;
56720;SDS011;53183;47.412;18.884;2022-11-15T05:33:58;27.02;;;15.38;;
56720;SDS011;53183;47.412;18.884;2022-11-15T05:36:46;27.55;;;14.75;;
56720;SDS011;53183;47.412;18.884;2022-11-15T05:39:31;28.12;;;15.68;;
56720;SDS011;53183;47.412;18.884;2022-11-15T05:42:17;28.35;;;15.85;;
56720;SDS011;53183;47.412;18.884;2022-11-15T05:45:05;31.17;;;15.95;;
56720;SDS011;53183;47.412;18.884;2022-11-15T05:47:53;34.72;;;18.48;;
56720;SDS011;53183;47.412;18.884;2022-11-15T05:50:45;30.25;;;17.23;;
56720;SDS011;53183;47.412;18.884;2022-11-15T05:53:32;30.92;;;16.80;;
56720;SDS011;53183;47.412;18.884;2022-11-15T05:56:18;34.40;;;17.27;;
56720;SDS011;53183;47.412;18.884;2022-11-15T05:59:05;29.30;;;16.25;;
56720;SDS011;53183;47.412;18.884;2022-11-15T06:01:53;37.22;;;17.45;;
56720;SDS011;53183;47.412;18.884;2022-11-15T06:04:40;33.90;;;16.87;;
56720;SDS011;53183;47.412;18.884;2022-11-15T06:07:26;37.17;;;17.73;;
56720;SDS011;53183;47.412;18.884;2022-11-15T06:10:15;30.73;;;17.58;;
56720;SDS011;53183;47.412;18.884;2022-11-15T06:13:02;32.00;;;18.23;;
56720;SDS011;53183;47.412;18.884;2022-11-15T06:15:49;35.75;;;18.45;;
56720;SDS011;53183;47.412;18.884;2022-11-15T06:18:34;39.90;;;20.35;;
56720;SDS011;53183;47.412;18.884;2022-11-15T06:21:20;41.28;;;19.83;;
56720;SDS011;53183;47.412;18.884;2022-11-15T06:24:09;37.88;;;20.55;;
56720;SDS011;53183;47.412;18.884;2022-11-15T06:26:55;40.03;;;22.40;;
56720;SDS011;53183;47.412;18.884;2022-11-15T06:29:40;46.33;;;22.23;;
56720;SDS011;53183;47.412;18.884;2022-11-15T06:32:26;33.38;;;19.42;;
56720;SDS011;53183;47.412;18.884;2022-11-15T06:35:12;33.38;;;17.98;;
56720;SDS011;53183;47.412;18.884;2022-11-15T06:38:08;33.35;;;18.33;;
56720;SDS011;53183;47.412;18.884;2022-11-15T06:41:01;36.65;;;19.75;;
56720;SDS011;53183;47.412;18.884;2022-11-15T06:43:50;35.53;;;18.12;;
56720;SDS011;53183;47.412;18.884;2022-11-15T06:46:36;35.63;;;17.65;;
56720;SDS011;53183;47.412;18.884;2022-11-15T06:49:21;32.78;;;17.70;;
56720;SDS011;53183;47.412;18.884;2022-11-15T06:52:09;35.65;;;17.48;;
56720;SDS011;53183;47.412;18.884;2022-11-15T06:54:55;39.88;;;18.62;;
56720;SDS011;53183;47.412;18.884;2022-11-15T06:57:47;34.22;;;18.55;;
56720;SDS011;53183;47.412;18.884;2022-11-15T07:00:37;38.75;;;16.92;;
56720;SDS011;53183;47.412;18.884;2022-11-15T07:03:23;30.80;;;17.12;;
56720;SDS011;53183;47.412;18.884;2022-11-15T07:06:08;30.92;;;17.15;;
56720;SDS011;53183;47.412;18.884;2022-11-15T07:08:55;24.87;;;14.75;;
56720;SDS011;53183;47.412;18.884;2022-11-15T07:11:41;31.45;;;17.25;;
56720;SDS011;53183;47.412;18.884;2022-11-15T07:14:26;30.40;;;16.42;;
56720;SDS011;53183;47.412;18.884;2022-11-15T07:17:12;31.02;;;15.23;;
56720;SDS011;53183;47.412;18.884;2022-11-15T07:19:57;26.42;;;15.73;;
56720;SDS011;53183;47.412;18.884;2022-11-15T07:22:43;27.80;;;16.08;;
56720;SDS011;53183;47.412;18.884;2022-11-15T07:25:32;33.63;;;16.48;;
56720;SDS011;53183;47.412;18.884;2022-11-15T07:28:17;27.92;;;15.68;;
56720;SDS011;53183;47.412;18.884;2022-11-15T07:31:05;30.35;;;16.98;;
56720;SDS011;53183;47.412;18.884;2022-11-15T07:33:55;30.83;;;15.50;;
56720;SDS011;53183;47.412;18.884;2022-11-15T07:36:40;28.33;;;15.50;;
56720;SDS011;53183;47.412;18.884;2022-11-15T07:39:25;28.05;;;15.10;;
56720;SDS011;53183;47.412;18.884;2022-11-15T07:42:11;28.20;;;16.17;;
56720;SDS011;53183;47.412;18.884;2022-11-15T07:45:15;27.40;;;15.10;;
56720;SDS011;53183;47.412;18.884;2022-11-15T07:48:01;31.87;;;17.60;;
56720;SDS011;53183;47.412;18.884;2022-11-15T07:50:46;31.25;;;17.37;;
56720;SDS011;53183;47.412;18.884;2022-11-15T07:53:32;32.20;;;16.12;;
56720;SDS011;53183;47.412;18.884;2022-11-15T07:56:18;30.30;;;16.23;;
56720;SDS011;53183;47.412;18.884;2022-11-15T07:59:05;31.55;;;16.30;;
56720;SDS011;53183;47.412;18.884;2022-11-15T08:01:50;31.33;;;16.02;;
56720;SDS011;53183;47.412;18.884;2022-11-15T08:04:37;30.62;;;16.37;;
56720;SDS011;53183;47.412;18.884;2022-11-15T08:07:23;32.63;;;17.85;;
56720;SDS011;53183;47.412;18.884;2022-11-15T08:10:09;32.10;;;16.85;;
56720;SDS011;53183;47.412;18.884;2022-11-15T08:12:58;28.35;;;15.80;;
56720;SDS011;53183;47.412;18.884;2022-11-15T08:15:59;33.05;;;16.58;;
56720;SDS011;53183;47.412;18.884;2022-11-15T08:18:45;25.52;;;15.23;;
56720;SDS011;53183;47.412;18.884;2022-11-15T08:21:31;32.40;;;15.23;;
56720;SDS011;53183;47.412;18.884;2022-11-15T08:24:18;26.80;;;15.32;;
56720;SDS011;53183;47.412;18.884;2022-11-15T08:27:04;33.33;;;16.05;;
56720;SDS011;53183;47.412;18.884;2022-11-15T08:29:50;30.55;;;15.95;;
56720;SDS011;53183;47.412;18.884;2022-11-15T08:32:42;29.58;;;16.67;;
56720;SDS011;53183;47.412;18.884;2022-11-15T08:35:28;34.45;;;17.55;;
56720;SDS011;53183;47.412;18.884;2022-11-15T08:38:16;29.83;;;16.52;;
56720;SDS011;53183;47.412;18.884;2022-11-15T08:41:06;28.40;;;17.33;;
56720;SDS011;53183;47.412;18.884;2022-11-15T08:43:54;31.85;;;16.52;;
56720;SDS011;53183;47.412;18.884;2022-11-15T08:46:40;33.08;;;16.67;;
56720;SDS011;53183;47.412;18.884;2022-11-15T08:49:29;30.50;;;16.70;;
56720;SDS011;53183;47.412;18.884;2022-11-15T08:52:15;28.95;;;17.20;;
56720;SDS011;53183;47.412;18.884;2022-11-15T08:55:03;35.67;;;18.20;;
56720;SDS011;53183;47.412;18.884;2022-11-15T08:57:51;33.13;;;16.37;;
56720;SDS011;53183;47.412;18.884;2022-11-15T09:00:36;28.98;;;17.27;;
56720;SDS011;53183;47.412;18.884;2022-11-15T09:03:22;35.70;;;17.75;;
56720;SDS011;53183;47.412;18.884;2022-11-15T09:06:13;30.77;;;17.37;;
56720;SDS011;53183;47.412;18.884;2022-11-15T09:09:00;30.08;;;17.25;;
56720;SDS011;53183;47.412;18.884;2022-11-15T09:11:49;29.92;;;17.73;;
56720;SDS011;53183;47.412;18.884;2022-11-15T09:14:36;35.17;;;17.87;;
56720;SDS011;53183;47.412;18.884;2022-11-15T09:17:22;32.38;;;18.83;;
56720;SDS011;53183;47.412;18.884;2022-11-15T09:20:10;34.60;;;17.75;;
56720;SDS011;53183;47.412;18.884;2022-11-15T09:22:59;33.35;;;18.98;;
56720;SDS011;53183;47.412;18.884;2022-11-15T09:25:48;36.22;;;18.30;;
56720;SDS011;53183;47.412;18.884;2022-11-15T09:28:38;39.40;;;21.87;;
56720;SDS011;53183;47.412;18.884;2022-11-15T09:31:27;34.03;;;19.58;;
56720;SDS011;53183;47.412;18.884;2022-11-15T09:34:15;36.78;;;18.95;;
56720;SDS011;53183;47.412;18.884;2022-11-15T09:37:06;33.20;;;18.40;;
56720;SDS011;53183;47.412;18.884;2022-11-15T09:39:54;42.62;;;20.05;;
56720;SDS011;53183;47.412;18.884;2022-11-15T09:51:30;32.50;;;20.52;;
56720;SDS011;53183;47.412;18.884;2022-11-15T09:54:11;41.80;;;20.83;;
56720;SDS011;53183;47.412;18.884;2022-11-15T09:57:32;37.35;;;21.75;;
56720;SDS011;53183;47.412;18.884;2022-11-15T10:00:20;36.67;;;20.98;;
56720;SDS011;53183;47.412;18.884;2022-11-15T10:06:04;40.38;;;22.48;;
56720;SDS011;53183;47.412;18.884;2022-11-15T10:11:23;44.33;;;22.80;;
56720;SDS011;53183;47.412;18.884;2022-11-15T10:14:17;43.78;;;23.40;;
56720;SDS011;53183;47.412;18.884;2022-11-15T10:19:54;39.60;;;23.50;;
56720;SDS011;53183;47.412;18.884;2022-11-15T10:22:47;40.88;;;23.25;;
56720;SDS011;53183;47.412;18.884;2022-11-15T10:25:22;41.47;;;22.33;;
56720;SDS011;53183;47.412;18.884;2022-11-15T10:27:58;40.00;;;22.67;;
56720;SDS011;53183;47.412;18.884;2022-11-15T10:30:35;40.58;;;22.55;;
56720;SDS011;53183;47.412;18.884;2022-11-15T10:33:16;38.53;;;23.02;;
56720;SDS011;53183;47.412;18.884;2022-11-15T10:35:48;41.35;;;22.95;;
56720;SDS011;53183;47.412;18.884;2022-11-15T10:38:21;40.90;;;22.03;;
56720;SDS011;53183;47.412;18.884;2022-11-15T10:40:49;40.65;;;22.80;;
56720;SDS011;53183;47.412;18.884;2022-11-15T10:43:35;39.92;;;21.08;;
56720;SDS011;53183;47.412;18.884;2022-11-15T10:46:16;39.83;;;22.95;;
56720;SDS011;53183;47.412;18.884;2022-11-15T10:49:13;38.78;;;21.90;;
56720;SDS011;53183;47.412;18.884;2022-11-15T10:51:47;40.40;;;21.55;;
56720;SDS011;53183;47.412;18.884;2022-11-15T10:54:30;48.05;;;23.00;;
56720;SDS011;53183;47.412;18.884;2022-11-15T10:57:12;46.60;;;26.17;;
56720;SDS011;53183;47.412;18.884;2022-11-15T10:59:45;42.97;;;24.48;;
56720;SDS011;53183;47.412;18.884;2022-11-15T11:10:36;42.28;;;22.70;;
56720;SDS011;53183;47.412;18.884;2022-11-15T11:13:29;46.37;;;25.35;;
56720;SDS011;53183;47.412;18.884;2022-11-15T11:21:52;33.95;;;21.42;;
56720;SDS011;53183;47.412;18.884;2022-11-15T11:30:15;38.58;;;21.73;;
56720;SDS011;53183;47.412;18.884;2022-11-15T11:33:07;41.83;;;22.05;;
56720;SDS011;53183;47.412;18.884;2022-11-15T11:35:59;39.53;;;21.77;;
56720;SDS011;53183;47.412;18.884;2022-11-15T11:38:58;39.13;;;21.02;;
56720;SDS011;53183;47.412;18.884;2022-11-15T11:44:30;39.88;;;22.58;;
56720;SDS011;53183;47.412;18.884;2022-11-15T11:49:46;36.75;;;21.55;;
56720;SDS011;53183;47.412;18.884;2022-11-15T11:52:22;40.20;;;22.85;;
56720;SDS011;53183;47.412;18.884;2022-11-15T12:00:23;44.28;;;20.12;;
56720;SDS011;53183;47.412;18.884;2022-11-15T12:03:00;38.78;;;23.17;;
56720;SDS011;53183;47.412;18.884;2022-11-15T12:13:42;46.90;;;25.92;;
56720;SDS011;53183;47.412;18.884;2022-11-15T12:16:21;40.03;;;21.70;;
56720;SDS011;53183;47.412;18.884;2022-11-15T12:21:32;40.00;;;22.33;;
56720;SDS011;53183;47.412;18.884;2022-11-15T12:24:26;66.45;;;35.55;;
56720;SDS011;53183;47.412;18.884;2022-11-15T12:30:04;49.28;;;25.25;;
56720;SDS011;53183;47.412;18.884;2022-11-15T12:32:38;37.13;;;22.40;;
56720;SDS011;53183;47.412;18.884;2022-11-15T12:35:24;44.10;;;22.55;;
56720;SDS011;53183;47.412;18.884;2022-11-15T12:38:02;40.47;;;23.73;;
56720;SDS011;53183;47.412;18.884;2022-11-15T12:40:36;39.88;;;21.83;;
56720;SDS011;53183;47.412;18.884;2022-11-15T12:45:41;46.00;;;22.73;;
56720;SDS011;53183;47.412;18.884;2022-11-15T12:59:38;41.95;;;22.62;;
56720;SDS011;53183;47.412;18.884;2022-11-15T13:04:21;37.08;;;20.77;;
56720;SDS011;53183;47.412;18.884;2022-11-15T13:11:56;49.22;;;25.15;;
56720;SDS011;53183;47.412;18.884;2022-11-15T13:14:42;45.67;;;24.90;;
56720;SDS011;53183;47.412;18.884;2022-11-15T13:17:31;41.78;;;23.25;;
56720;SDS011;53183;47.412;18.884;2022-11-15T13:20:14;40.60;;;23.25;;
56720;SDS011;53183;47.412;18.884;2022-11-15T13:23:10;44.10;;;24.00;;
56720;SDS011;53183;47.412;18.884;2022-11-15T13:28:49;47.25;;;22.60;;
56720;SDS011;53183;47.412;18.884;2022-11-15T13:31:34;43.78;;;23.92;;
56720;SDS011;53183;47.412;18.884;2022-11-15T13:39:50;45.45;;;25.70;;
56720;SDS011;53183;47.412;18.884;2022-11-15T13:42:17;53.85;;;26.40;;
56720;SDS011;53183;47.412;18.884;2022-11-15T13:44:59;51.37;;;27.10;;
56720;SDS011;53183;47.412;18.884;2022-11-15T13:47:32;49.28;;;27.00;;
56720;SDS011;53183;47.412;18.884;2022-11-15T13:49:59;51.17;;;27.73;;
56720;SDS011;53183;47.412;18.884;2022-11-15T13:52:38;49.80;;;24.58;;
56720;SDS011;53183;47.412;18.884;2022-11-15T13:55:11;47.08;;;24.02;;
56720;SDS011;53183;47.412;18.884;2022-11-15T13:57:44;52.65;;;25.85;;
56720;SDS011;53183;47.412;18.884;2022-11-15T14:00:32;54.28;;;26.42;;
56720;SDS011;53183;47.412;18.884;2022-11-15T14:08:42;57.83;;;29.12;;
56720;SDS011;53183;47.412;18.884;2022-11-15T14:11:51;54.55;;;28.70;;
56720;SDS011;53183;47.412;18.884;2022-11-15T14:14:21;61.85;;;30.02;;
56720;SDS011;53183;47.412;18.884;2022-11-15T14:16:54;59.72;;;30.98;;
56720;SDS011;53183;47.412;18.884;2022-11-15T14:24:36;54.85;;;28.92;;
56720;SDS011;53183;47.412;18.884;2022-11-15T14:27:24;52.08;;;26.35;;
56720;SDS011;53183;47.412;18.884;2022-11-15T14:29:53;55.25;;;28.25;;
56720;SDS011;53183;47.412;18.884;2022-11-15T14:32:21;53.40;;;28.10;;
56720;SDS011;53183;47.412;18.884;2022-11-15T14:34:54;53.55;;;27.33;;
56720;SDS011;53183;47.412;18.884;2022-11-15T14:39:51;57.40;;;26.48;;
56720;SDS011;53183;47.412;18.884;2022-11-15T14:42:20;54.05;;;28.10;;
56720;SDS011;53183;47.412;18.884;2022-11-15T14:44:48;53.40;;;25.55;;
56720;SDS011;53183;47.412;18.884;2022-11-15T14:47:16;54.42;;;27.33;;
56720;SDS011;53183;47.412;18.884;2022-11-15T14:49:43;50.80;;;26.80;;
56720;SDS011;53183;47.412;18.884;2022-11-15T14:52:32;54.50;;;27.25;;
56720;SDS011;53183;47.412;18.884;2022-11-15T14:55:04;60.72;;;28.67;;
56720;SDS011;53183;47.412;18.884;2022-11-15T14:57:41;61.67;;;28.25;;
56720;SDS011;53183;47.412;18.884;2022-11-15T15:00:08;52.53;;;26.70;;
56720;SDS011;53183;47.412;18.884;2022-11-15T15:02:38;56.70;;;28.80;;
56720;SDS011;53183;47.412;18.884;2022-11-15T15:05:16;54.30;;;28.58;;
56720;SDS011;53183;47.412;18.884;2022-11-15T15:07:51;55.75;;;27.27;;
56720;SDS011;53183;47.412;18.884;2022-11-15T15:10:20;53.87;;;28.12;;
56720;SDS011;53183;47.412;18.884;2022-11-15T15:13:25;50.60;;;25.75;;
56720;SDS011;53183;47.412;18.884;2022-11-15T15:15:52;50.03;;;26.37;;
56720;SDS011;53183;47.412;18.884;2022-11-15T15:18:20;54.88;;;25.90;;
56720;SDS011;53183;47.412;18.884;2022-11-15T15:20:49;46.03;;;24.20;;
56720;SDS011;53183;47.412;18.884;2022-11-15T15:23:22;50.75;;;25.90;;
56720;SDS011;53183;47.412;18.884;2022-11-15T15:25:50;51.92;;;25.85;;
56720;SDS011;53183;47.412;18.884;2022-11-15T15:28:19;52.60;;;27.10;;
56720;SDS011;53183;47.412;18.884;2022-11-15T15:30:46;50.45;;;27.45;;
56720;SDS011;53183;47.412;18.884;2022-11-15T15:33:13;49.35;;;25.92;;
56720;SDS011;53183;47.412;18.884;2022-11-15T15:35:41;54.63;;;24.60;;
56720;SDS011;53183;47.412;18.884;2022-11-15T15:38:10;57.42;;;27.40;;
56720;SDS011;53183;47.412;18.884;2022-11-15T15:40:38;54.10;;;27.35;;
56720;SDS011;53183;47.412;18.884;2022-11-15T15:43:06;52.08;;;25.25;;
56720;SDS011;53183;47.412;18.884;2022-11-15T15:45:37;52.53;;;25.37;;
56720;SDS011;53183;47.412;18.884;2022-11-15T15:48:07;56.50;;;26.85;;
56720;SDS011;53183;47.412;18.884;2022-11-15T15:50:39;55.20;;;28.60;;
56720;SDS011;53183;47.412;18.884;2022-11-15T15:53:06;56.70;;;28.17;;
56720;SDS011;53183;47.412;18.884;2022-11-15T15:55:34;52.75;;;25.77;;
56720;SDS011;53183;47.412;18.884;2022-11-15T15:58:02;55.55;;;27.80;;
56720;SDS011;53183;47.412;18.884;2022-11-15T16:00:29;51.85;;;27.30;;
56720;SDS011;53183;47.412;18.884;2022-11-15T16:02:59;53.67;;;25.73;;
56720;SDS011;53183;47.412;18.884;2022-11-15T16:05:26;60.38;;;29.02;;
56720;SDS011;53183;47.412;18.884;2022-11-15T16:07:53;56.95;;;27.80;;
56720;SDS011;53183;47.412;18.884;2022-11-15T16:10:23;69.93;;;29.70;;
56720;SDS011;53183;47.412;18.884;2022-11-15T16:12:53;61.50;;;29.73;;
56720;SDS011;53183;47.412;18.884;2022-11-15T16:15:21;61.45;;;28.62;;
56720;SDS011;53183;47.412;18.884;2022-11-15T16:17:50;56.83;;;29.27;;
56720;SDS011;53183;47.412;18.884;2022-11-15T16:23:07;64.82;;;30.65;;
56720;SDS011;53183;47.412;18.884;2022-11-15T16:25:47;59.45;;;27.40;;
56720;SDS011;53183;47.412;18.884;2022-11-15T16:28:21;60.30;;;29.87;;
56720;SDS011;53183;47.412;18.884;2022-11-15T16:31:03;62.50;;;30.20;;
56720;SDS011;53183;47.412;18.884;2022-11-15T16:33:33;58.70;;;29.95;;
56720;SDS011;53183;47.412;18.884;2022-11-15T16:36:02;68.35;;;29.35;;
56720;SDS011;53183;47.412;18.884;2022-11-15T16:38:30;59.50;;;28.85;;
56720;SDS011;53183;47.412;18.884;2022-11-15T16:40:58;66.50;;;30.83;;
56720;SDS011;53183;47.412;18.884;2022-11-15T16:43:25;68.00;;;29.67;;
56720;SDS011;53183;47.412;18.884;2022-11-15T16:45:53;66.57;;;30.30;;
56720;SDS011;53183;47.412;18.884;2022-11-15T16:48:24;56.10;;;29.10;;
56720;SDS011;53183;47.412;18.884;2022-11-15T16:50:56;68.72;;;30.05;;
56720;SDS011;53183;47.412;18.884;2022-11-15T16:53:25;66.40;;;29.35;;
56720;SDS011;53183;47.412;18.884;2022-11-15T16:55:53;65.10;;;28.60;;
56720;SDS011;53183;47.412;18.884;2022-11-15T16:58:21;56.67;;;27.20;;
56720;SDS011;53183;47.412;18.884;2022-11-15T17:00:50;64.07;;;30.33;;
56720;SDS011;53183;47.412;18.884;2022-11-15T17:03:24;64.00;;;28.92;;
56720;SDS011;53183;47.412;18.884;2022-11-15T17:05:52;68.60;;;30.48;;
56720;SDS011;53183;47.412;18.884;2022-11-15T17:08:23;71.43;;;31.00;;
56720;SDS011;53183;47.412;18.884;2022-11-15T17:10:50;74.43;;;31.00;;
56720;SDS011;53183;47.412;18.884;2022-11-15T17:13:18;67.18;;;31.12;;
56720;SDS011;53183;47.412;18.884;2022-11-15T17:15:45;81.55;;;32.47;;
56720;SDS011;53183;47.412;18.884;2022-11-15T17:18:12;73.82;;;30.23;;
56720;SDS011;53183;47.412;18.884;2022-11-15T17:20:41;66.28;;;29.98;;
56720;SDS011;53183;47.412;18.884;2022-11-15T17:23:11;67.80;;;30.35;;
56720;SDS011;53183;47.412;18.884;2022-11-15T17:25:40;65.87;;;28.52;;
56720;SDS011;53183;47.412;18.884;2022-11-15T17:28:08;78.55;;;31.60;;
56720;SDS011;53183;47.412;18.884;2022-11-15T17:30:36;68.30;;;29.80;;
56720;SDS011;53183;47.412;18.884;2022-11-15T17:33:09;69.77;;;29.87;;
56720;SDS011;53183;47.412;18.884;2022-11-15T17:35:36;112.75;;;29.95;;
56720;SDS011;53183;47.412;18.884;2022-11-15T17:38:04;74.47;;;30.25;;
56720;SDS011;53183;47.412;18.884;2022-11-15T17:40:31;84.18;;;33.17;;
56720;SDS011;53183;47.412;18.884;2022-11-15T17:42:58;73.15;;;32.25;;
56720;SDS011;53183;47.412;18.884;2022-11-15T17:45:25;78.43;;;32.40;;
56720;SDS011;53183;47.412;18.884;2022-11-15T17:47:52;78.62;;;34.53;;
56720;SDS011;53183;47.412;18.884;2022-11-15T17:50:20;75.28;;;32.33;;
56720;SDS011;53183;47.412;18.884;2022-11-15T17:52:47;79.80;;;32.05;;
56720;SDS011;53183;47.412;18.884;2022-11-15T17:55:14;76.47;;;31.65;;
56720;SDS011;53183;47.412;18.884;2022-11-15T17:57:42;64.50;;;32.30;;
56720;SDS011;53183;47.412;18.884;2022-11-15T18:00:09;75.53;;;30.98;;
56720;SDS011;53183;47.412;18.884;2022-11-15T18:02:37;81.43;;;32.13;;